Kjella — JXMW — position and weather

sailwx.info

Track history (hours):
 
Tides and Currents Weather Stations Pressure Air Temp Water Temp Dewpoint Dewpoint Depression Visibility Wind Speed Wind Dir Waves Ship Positions

Kjella

Last reported at 2018-Feb-23 14:00 UTC. Time now 2018-Feb-23 14:01 UTC.
Position N 65°48' E 012°31'.

Length 55 m; draft 3.5 m.

Type: Passenger vessel. MMSI: 257049700.

Date/timePositionNaut miles runAvg speedWind from/ knotsBaromVisibWave heightAir tempDewpointWater temp
2018-Feb-23 14:00N 65°48' E 012°31'510.0
2018-Feb-23 13:30N 65°43' E 012°28'3 6.3
2018-Feb-23 12:59N 65°45' E 012°32'3 6.1
2018-Feb-23 12:29N 65°48' E 012°30'2 3.2
2018-Feb-23 12:00N 65°49' E 012°26'5 9.0
2018-Feb-23 11:30N 65°46' E 012°33'4 7.5
2018-Feb-23 11:00N 65°43' E 012°28'2 3.5
2018-Feb-23 10:30N 65°44' E 012°29'4 7.1
2018-Feb-23 10:00N 65°48' E 012°32'3 5.4
2018-Feb-23 09:30N 65°49' E 012°26'3 6.8
2018-Feb-23 09:00N 65°47' E 012°30'4 7.8
2018-Feb-23 08:30N 65°43' E 012°28'4 7.6
2018-Feb-23 08:01N 65°46' E 012°33'3 6.0
2018-Feb-23 07:29N 65°48' E 012°30'2 3.5
2018-Feb-23 07:00N 65°49' E 012°26'3 6.4
2018-Feb-23 06:30N 65°47' E 012°31'3 7.1
2018-Feb-23 06:00N 65°43' E 012°28'2 3.4
2018-Feb-23 05:29N 65°45' E 012°31'3 6.8
2018-Feb-23 04:59N 65°48' E 012°30'2 4.3
2018-Feb-23 04:30N 65°49' E 012°26'0 0.0
2018-Feb-23 03:59N 65°49' E 012°26'0 0.0
2018-Feb-23 03:30N 65°49' E 012°26'0 0.0
2018-Feb-23 02:58N 65°49' E 012°26'0 0.0
2018-Feb-23 02:29N 65°49' E 012°26'0 0.0
2018-Feb-23 02:00N 65°49' E 012°26'0 0.0
2018-Feb-23 01:30N 65°49' E 012°26'0 0.0
2018-Feb-23 01:00N 65°49' E 012°26'0 0.0
2018-Feb-23 00:29N 65°49' E 012°26'0 0.0
2018-Feb-23 00:00N 65°49' E 012°26'0 0.0
2018-Feb-22 23:29N 65°49' E 012°26'0 0.0
2018-Feb-22 22:58N 65°49' E 012°26'0 0.0
2018-Feb-22 22:30N 65°49' E 012°26'0 0.0
2018-Feb-22 22:00N 65°49' E 012°26'0 0.0
2018-Feb-22 21:30N 65°49' E 012°26'3 5.9
2018-Feb-22 21:00N 65°47' E 012°30'4 7.7
2018-Feb-22 20:30N 65°43' E 012°27'5 9.7
2018-Feb-22 20:00N 65°48' E 012°31'3 5.5
2018-Feb-22 19:30N 65°49' E 012°26'2 3.2
2018-Feb-22 19:00N 65°49' E 012°29'510.4
2018-Feb-22 18:30N 65°43' E 012°27'3 6.4
2018-Feb-22 18:00N 65°46' E 012°33'3 5.6
2018-Feb-22 17:30N 65°48' E 012°31'2 4.4
2018-Feb-22 17:00N 65°49' E 012°26'0 0.7
2018-Feb-22 16:30N 65°49' E 012°26'4 9.0
2018-Feb-22 16:00N 65°46' E 012°33'4 7.6
2018-Feb-22 15:30N 65°43' E 012°28'4 8.7
2018-Feb-22 15:00N 65°47' E 012°31'3 5.8
2018-Feb-22 14:29N 65°49' E 012°26'3 5.8
2018-Feb-22 14:01N 65°48' E 012°31'5 9.4
2018-Feb-22 13:30N 65°43' E 012°27'3 6.0
2018-Feb-22 13:00N 65°45' E 012°32'3 6.3
2018-Feb-22 12:30N 65°48' E 012°30'0 0.8
2018-Feb-22 12:00N 65°49' E 012°29'4 7.2
2018-Feb-22 11:30N 65°46' E 012°33'4 7.0
2018-Feb-22 10:59N 65°43' E 012°28'3 6.3
2018-Feb-22 10:30N 65°45' E 012°32'3 6.0
2018-Feb-22 10:00N 65°48' E 012°30'2 4.3
2018-Feb-22 09:30N 65°49' E 012°26'3 6.7
2018-Feb-22 09:00N 65°46' E 012°30'4 7.5
2018-Feb-22 08:29N 65°43' E 012°28'4 6.8
2018-Feb-22 07:57N 65°46' E 012°33'2 5.4
2018-Feb-22 07:30N 65°48' E 012°31'1 2.6
2018-Feb-22 07:00N 65°49' E 012°28'4 7.3
2018-Feb-22 06:30N 65°46' E 012°33'3 6.8
2018-Feb-22 06:00N 65°43' E 012°27'3 5.1
2018-Feb-22 05:30N 65°45' E 012°31'3 6.9
2018-Feb-22 05:00N 65°49' E 012°30'2 3.2
2018-Feb-22 04:29N 65°49' E 012°26'0 0.0
2018-Feb-22 03:59N 65°49' E 012°26'0 0.0
2018-Feb-22 03:29N 65°49' E 012°26'0 0.0
2018-Feb-22 02:59N 65°49' E 012°26'0 0.0
2018-Feb-22 02:28N 65°49' E 012°26'0 0.0
2018-Feb-22 01:59N 65°49' E 012°26'0 0.0
2018-Feb-22 01:30N 65°49' E 012°26'0 0.0
2018-Feb-22 00:59N 65°49' E 012°26'0 0.0
2018-Feb-22 00:30N 65°49' E 012°26'0 0.0
2018-Feb-22 00:00N 65°49' E 012°26'0 0.0
2018-Feb-21 23:30N 65°49' E 012°26'0 0.0
2018-Feb-21 23:00N 65°49' E 012°26'0 0.0
2018-Feb-21 22:30N 65°49' E 012°26'0 0.0
2018-Feb-21 22:00N 65°49' E 012°26'0 0.0
2018-Feb-21 21:30N 65°49' E 012°26'3 6.0
2018-Feb-21 21:00N 65°47' E 012°31'4 8.5
2018-Feb-21 20:29N 65°43' E 012°28'611.4
2018-Feb-21 19:59N 65°48' E 012°30'2 4.2
2018-Feb-21 19:28N 65°49' E 012°26'3 5.4
2018-Feb-21 19:00N 65°48' E 012°31'510.1
2018-Feb-21 18:30N 65°43' E 012°27'3 6.0
2018-Feb-21 18:00N 65°45' E 012°32'3 5.8
2018-Feb-21 17:30N 65°48' E 012°31'2 4.4
2018-Feb-21 17:00N 65°49' E 012°26'1 1.7
2018-Feb-21 16:30N 65°49' E 012°27'4 7.5
2018-Feb-21 16:00N 65°46' E 012°33'4 6.9
2018-Feb-21 15:29N 65°43' E 012°28'4 9.1
2018-Feb-21 15:00N 65°47' E 012°31'3 6.1
2018-Feb-21 14:30N 65°49' E 012°26'2 4.0
2018-Feb-21 14:00N 65°48' E 012°30'510.2
2018-Feb-21 13:30N 65°43' E 012°27'0 0.3
2018-Feb-21 13:00N 65°43' E 012°27'510.3
2018-Feb-21 12:31N 65°48' E 012°30'2 3.2
2018-Feb-21 12:00N 65°49' E 012°26'5 9.0
2018-Feb-21 11:30N 65°46' E 012°33'4 7.1
2018-Feb-21 10:58N 65°43' E 012°28'4 8.0
2018-Feb-21 10:30N 65°46' E 012°33'3 5.2
2018-Feb-21 10:00N 65°48' E 012°31'2 4.6
2018-Feb-21 09:30N 65°49' E 012°26'3 6.7
2018-Feb-21 09:00N 65°46' E 012°30'4 7.5
2018-Feb-21 08:29N 65°43' E 012°28'3 5.9
2018-Feb-21 07:59N 65°45' E 012°31'3 6.6
2018-Feb-21 07:30N 65°48' E 012°30'2 3.5
2018-Feb-21 07:00N 65°49' E 012°26'3 6.3
2018-Feb-21 06:30N 65°47' E 012°31'3 7.0
2018-Feb-21 06:00N 65°43' E 012°29'1 2.6
2018-Feb-21 05:30N 65°45' E 012°30'3 6.8
2018-Feb-21 05:00N 65°48' E 012°31'2 4.6
2018-Feb-21 04:29N 65°49' E 012°26'0 0.0
2018-Feb-21 04:00N 65°49' E 012°26'0 0.0
2018-Feb-21 03:30N 65°49' E 012°26'0 0.0
2018-Feb-21 03:00N 65°49' E 012°26'0 0.0
2018-Feb-21 02:29N 65°49' E 012°26'0 0.0
2018-Feb-21 01:59N 65°49' E 012°26'0 0.0
2018-Feb-21 01:29N 65°49' E 012°26'0 0.0
2018-Feb-21 01:00N 65°49' E 012°26'0 0.0
2018-Feb-21 00:30N 65°49' E 012°26'0 0.0
2018-Feb-21 00:00N 65°49' E 012°26'0 0.0
2018-Feb-20 23:29N 65°49' E 012°26'0 0.0
2018-Feb-20 23:00N 65°49' E 012°26'0 0.0
2018-Feb-20 22:30N 65°49' E 012°26'0 0.0
2018-Feb-20 22:00N 65°49' E 012°26'0 0.0
2018-Feb-20 21:29N 65°49' E 012°26'3 5.3
2018-Feb-20 21:00N 65°48' E 012°31'5 9.9
2018-Feb-20 20:30N 65°43' E 012°28'4 8.8
2018-Feb-20 20:00N 65°47' E 012°30'3 5.9
2018-Feb-20 19:30N 65°49' E 012°26'2 4.8
2018-Feb-20 18:59N 65°48' E 012°31'5 9.7
2018-Feb-20 18:30N 65°43' E 012°27'3 6.1
2018-Feb-20 17:59N 65°46' E 012°32'3 5.6
2018-Feb-20 17:28N 65°48' E 012°30'2 4.4
2018-Feb-20 16:59N 65°49' E 012°26'2 3.9
2018-Feb-20 16:29N 65°48' E 012°30'3 6.1
2018-Feb-20 16:00N 65°46' E 012°33'4 7.4
2018-Feb-20 15:29N 65°43' E 012°28'5 9.6
2018-Feb-20 14:59N 65°48' E 012°31'3 5.7
2018-Feb-20 14:30N 65°49' E 012°26'2 4.5
2018-Feb-20 13:59N 65°48' E 012°31'510.1
2018-Feb-20 13:30N 65°43' E 012°27'3 5.0
2018-Feb-20 12:59N 65°45' E 012°31'3 6.7
2018-Feb-20 12:30N 65°48' E 012°30'2 3.3
2018-Feb-20 12:00N 65°49' E 012°26'5 8.9
2018-Feb-20 11:30N 65°46' E 012°33'4 7.5
2018-Feb-20 11:00N 65°43' E 012°28'2 4.4
2018-Feb-20 10:28N 65°45' E 012°30'3 7.0
2018-Feb-20 10:00N 65°48' E 012°31'2 4.7
2018-Feb-20 09:30N 65°49' E 012°26'3 6.5
2018-Feb-20 09:00N 65°46' E 012°30'4 7.6
2018-Feb-20 08:30N 65°43' E 012°28'3 5.8
2018-Feb-20 08:00N 65°45' E 012°31'3 6.5
2018-Feb-20 07:30N 65°48' E 012°30'2 3.7
2018-Feb-20 07:00N 65°49' E 012°26'4 7.3
2018-Feb-20 06:30N 65°46' E 012°31'4 6.8
2018-Feb-20 05:59N 65°43' E 012°27'2 4.3
2018-Feb-20 05:29N 65°45' E 012°31'4 7.2
2018-Feb-20 05:00N 65°48' E 012°30'2 3.8
2018-Feb-20 04:30N 65°49' E 012°26'0 0.0
2018-Feb-20 04:00N 65°49' E 012°26'0 0.0
2018-Feb-20 03:29N 65°49' E 012°26'0 0.0
2018-Feb-20 03:00N 65°49' E 012°26'0 0.0
2018-Feb-20 02:30N 65°49' E 012°26'0 0.0
2018-Feb-20 02:00N 65°49' E 012°26'0 0.0
2018-Feb-20 01:30N 65°49' E 012°26'0 0.0
2018-Feb-20 00:59N 65°49' E 012°26'0 0.0
2018-Feb-20 00:30N 65°49' E 012°26'0 0.0
2018-Feb-19 23:59N 65°49' E 012°26'0 0.0
2018-Feb-19 23:30N 65°49' E 012°26'0 0.0
2018-Feb-19 22:59N 65°49' E 012°26'0 0.0
2018-Feb-19 22:30N 65°49' E 012°26'0 0.0
2018-Feb-19 22:00N 65°49' E 012°26'0 0.0
2018-Feb-19 21:30N 65°49' E 012°26'3 5.6
2018-Feb-19 21:00N 65°47' E 012°31'5 9.3
2018-Feb-19 20:30N 65°43' E 012°28'4 8.5
2018-Feb-19 20:00N 65°47' E 012°30'3 6.1
2018-Feb-19 19:30N 65°49' E 012°26'3 5.2
2018-Feb-19 19:00N 65°48' E 012°31'3 6.7
2018-Feb-19 18:30N 65°44' E 012°29'1 2.5
2018-Feb-19 18:00N 65°43' E 012°27'5 9.8
2018-Feb-19 17:30N 65°48' E 012°30'2 4.3
2018-Feb-19 17:00N 65°49' E 012°26'2 4.7
2018-Feb-19 16:30N 65°48' E 012°31'3 5.8
2018-Feb-19 15:59N 65°45' E 012°31'2 5.0
2018-Feb-19 15:30N 65°43' E 012°27'5 9.8
2018-Feb-19 15:00N 65°48' E 012°32'3 5.5
2018-Feb-19 14:30N 65°49' E 012°26'2 3.6
2018-Feb-19 14:00N 65°48' E 012°30'510.4
2018-Feb-19 13:30N 65°43' E 012°27'0 0.6
2018-Feb-19 12:59N 65°44' E 012°28'510.4
2018-Feb-19 12:30N 65°48' E 012°30'2 3.6
2018-Feb-19 12:00N 65°49' E 012°26'3 6.1
2018-Feb-19 11:29N 65°47' E 012°30'4 8.1
2018-Feb-19 11:00N 65°43' E 012°28'4 7.2
2018-Feb-19 10:30N 65°46' E 012°33'3 5.4
2018-Feb-19 10:00N 65°48' E 012°31'2 4.7
2018-Feb-19 09:30N 65°49' E 012°26'3 6.7
2018-Feb-19 09:00N 65°46' E 012°30'4 7.4
2018-Feb-19 08:30N 65°43' E 012°28'3 6.7
2018-Feb-19 07:59N 65°46' E 012°33'3 6.4
2018-Feb-19 07:30N 65°48' E 012°30'1 1.7
2018-Feb-19 06:59N 65°49' E 012°28'4 7.3
2018-Feb-19 06:30N 65°46' E 012°33'3 7.0
2018-Feb-19 06:00N 65°43' E 012°27'1 2.9
2018-Feb-19 05:30N 65°44' E 012°30'4 7.0
2018-Feb-19 05:00N 65°48' E 012°31'2 4.6
2018-Feb-19 04:29N 65°49' E 012°26'0 0.0
2018-Feb-19 04:00N 65°49' E 012°26'0 0.0
2018-Feb-19 03:30N 65°49' E 012°26'0 0.0
2018-Feb-19 03:00N 65°49' E 012°26'0 0.0
2018-Feb-19 02:29N 65°49' E 012°26'0 0.0
2018-Feb-19 02:00N 65°49' E 012°26'0 0.0
2018-Feb-19 01:30N 65°49' E 012°26'0 0.0
2018-Feb-19 01:00N 65°49' E 012°26'0 0.0
2018-Feb-19 00:30N 65°49' E 012°26'0 0.0
2018-Feb-18 23:58N 65°49' E 012°26'0 0.0
2018-Feb-18 23:30N 65°49' E 012°26'0 0.0
2018-Feb-18 22:59N 65°49' E 012°26'0 0.0
2018-Feb-18 22:30N 65°49' E 012°26'0 0.0
2018-Feb-18 22:00N 65°49' E 012°26'0 0.0
2018-Feb-18 21:30N 65°49' E 012°26'4 7.3
2018-Feb-18 21:00N 65°46' E 012°30'3 6.7
2018-Feb-18 20:30N 65°43' E 012°28'510.5
2018-Feb-18 20:00N 65°48' E 012°31'3 5.6
2018-Feb-18 19:30N 65°49' E 012°26'2 4.7
2018-Feb-18 19:00N 65°48' E 012°31'5 9.8
2018-Feb-18 18:30N 65°43' E 012°27'3 5.4
2018-Feb-18 18:00N 65°45' E 012°32'3 5.5
2018-Feb-18 17:30N 65°48' E 012°31'2 4.6
2018-Feb-18 16:59N 65°49' E 012°26'1 1.8
2018-Feb-18 16:30N 65°49' E 012°27'4 8.0
2018-Feb-18 16:00N 65°46' E 012°33'4 7.2
2018-Feb-18 15:30N 65°43' E 012°28'3 6.3
2018-Feb-18 15:00N 65°46' E 012°29'4 7.6
2018-Feb-18 14:30N 65°49' E 012°26'0 0.0
2018-Feb-18 13:57N 65°49' E 012°26'0 0.0
2018-Feb-18 13:30N 65°49' E 012°26'0 0.0
2018-Feb-18 13:00N 65°49' E 012°26'0 0.0
2018-Feb-18 12:30N 65°49' E 012°26'0 0.0
2018-Feb-18 12:00N 65°49' E 012°26'2 4.0
2018-Feb-18 11:30N 65°48' E 012°30'611.2
2018-Feb-18 11:00N 65°43' E 012°28'1 2.2
2018-Feb-18 10:30N 65°44' E 012°28'3 6.6
2018-Feb-18 10:00N 65°47' E 012°31'3 6.3
2018-Feb-18 09:30N 65°49' E 012°26'3 6.4
2018-Feb-18 09:00N 65°47' E 012°30'4 7.9
2018-Feb-18 08:30N 65°43' E 012°28'1 1.9
2018-Feb-18 08:00N 65°44' E 012°28'5 9.4
2018-Feb-18 07:29N 65°48' E 012°30'2 3.7
2018-Feb-18 06:59N 65°49' E 012°26'0 0.0
2018-Feb-18 06:29N 65°49' E 012°26'0 0.0
2018-Feb-18 06:00N 65°49' E 012°26'0 0.0
2018-Feb-18 05:29N 65°49' E 012°26'0 0.0
2018-Feb-18 05:00N 65°49' E 012°26'0 0.0
2018-Feb-18 04:30N 65°49' E 012°26'0 0.0
2018-Feb-18 04:00N 65°49' E 012°26'0 0.0
2018-Feb-18 03:30N 65°49' E 012°26'0 0.0
2018-Feb-18 02:58N 65°49' E 012°26'0 0.0
2018-Feb-18 02:30N 65°49' E 012°26'0 0.0
2018-Feb-18 02:00N 65°49' E 012°26'0 0.0
2018-Feb-18 01:30N 65°49' E 012°26'0 0.0
2018-Feb-18 00:58N 65°49' E 012°26'0 0.0
2018-Feb-18 00:30N 65°49' E 012°26'0 0.0
2018-Feb-18 00:00N 65°49' E 012°26'0 0.0
2018-Feb-17 23:29N 65°49' E 012°26'0 0.0
2018-Feb-17 23:00N 65°49' E 012°26'0 0.0
2018-Feb-17 22:30N 65°49' E 012°26'0 0.0
2018-Feb-17 21:58N 65°49' E 012°26'0 0.0
2018-Feb-17 21:29N 65°49' E 012°26'0 0.0
2018-Feb-17 20:59N 65°49' E 012°26'0 0.0
2018-Feb-17 20:29N 65°49' E 012°26'0 0.0
2018-Feb-17 20:00N 65°49' E 012°26'0 0.0
2018-Feb-17 19:30N 65°49' E 012°26'0 0.5
2018-Feb-17 19:00N 65°49' E 012°26'5 9.0
2018-Feb-17 18:30N 65°45' E 012°29'1 2.0
2018-Feb-17 18:00N 65°44' E 012°28'3 6.5
2018-Feb-17 17:30N 65°47' E 012°31'3 6.4
2018-Feb-17 16:59N 65°49' E 012°26'2 4.4
2018-Feb-17 16:29N 65°48' E 012°31'3 6.2
2018-Feb-17 16:00N 65°45' E 012°32'3 5.5
2018-Feb-17 15:30N 65°43' E 012°27'5 9.6
2018-Feb-17 15:00N 65°48' E 012°31'3 5.6
2018-Feb-17 14:30N 65°49' E 012°26'0 0.0
2018-Feb-17 13:59N 65°49' E 012°26'0 0.0
2018-Feb-17 13:30N 65°49' E 012°26'0 0.0
2018-Feb-17 13:00N 65°49' E 012°26'0 0.0
2018-Feb-17 12:30N 65°49' E 012°26'0 0.6
2018-Feb-17 12:00N 65°49' E 012°26'5 9.4
2018-Feb-17 11:30N 65°46' E 012°33'4 7.4
2018-Feb-17 11:00N 65°43' E 012°28'3 6.9
2018-Feb-17 10:30N 65°46' E 012°33'3 5.4
2018-Feb-17 10:00N 65°48' E 012°31'2 3.5
2018-Feb-17 09:29N 65°49' E 012°26'3 5.4
2018-Feb-17 08:59N 65°47' E 012°30'4 8.0
2018-Feb-17 08:30N 65°43' E 012°28'2 4.8
2018-Feb-17 08:00N 65°45' E 012°29'3 6.8
2018-Feb-17 07:30N 65°48' E 012°30'2 3.6
2018-Feb-17 07:00N 65°49' E 012°26'4 8.6
2018-Feb-17 06:29N 65°46' E 012°33'3 6.5
2018-Feb-17 06:00N 65°43' E 012°28'1 1.4
2018-Feb-17 05:30N 65°43' E 012°28'0 0.0
2018-Feb-17 05:00N 65°43' E 012°28'0 0.0
2018-Feb-17 04:30N 65°43' E 012°28'0 0.0
2018-Feb-17 04:00N 65°43' E 012°28'0 0.0
2018-Feb-17 03:30N 65°43' E 012°28'0 0.0
2018-Feb-17 03:00N 65°43' E 012°28'0 0.0
2018-Feb-17 02:30N 65°43' E 012°28'0 0.0
2018-Feb-17 02:00N 65°43' E 012°28'0 0.0
2018-Feb-17 01:30N 65°43' E 012°28'0 0.0
2018-Feb-17 01:00N 65°43' E 012°28'0 0.0
2018-Feb-17 00:30N 65°43' E 012°28'0 0.0
2018-Feb-17 00:00N 65°43' E 012°28'0 0.0
2018-Feb-16 23:29N 65°43' E 012°28'0 0.0
2018-Feb-16 23:00N 65°43' E 012°28'0 0.0
2018-Feb-16 22:30N 65°43' E 012°28'0 0.0
2018-Feb-16 22:00N 65°43' E 012°28'0 0.0
2018-Feb-16 21:30N 65°43' E 012°28'0 0.0
2018-Feb-16 21:00N 65°43' E 012°28'0 0.2
2018-Feb-16 20:30N 65°43' E 012°28'4 8.6
2018-Feb-16 20:00N 65°47' E 012°30'2 4.4
2018-Feb-16 19:30N 65°49' E 012°27'4 7.4
2018-Feb-16 19:00N 65°46' E 012°32'3 6.4
2018-Feb-16 18:30N 65°43' E 012°27'4 7.1
2018-Feb-16 18:00N 65°46' E 012°33'3 6.6
2018-Feb-16 17:30N 65°49' E 012°29'2 3.1
2018-Feb-16 17:00N 65°49' E 012°26'3 6.1
2018-Feb-16 16:29N 65°47' E 012°31'3 6.8
2018-Feb-16 16:00N 65°44' E 012°28'1 1.8
2018-Feb-16 15:30N 65°43' E 012°28'4 8.5
2018-Feb-16 15:00N 65°47' E 012°31'3 6.0
2018-Feb-16 14:30N 65°49' E 012°26'3 5.3
2018-Feb-16 13:59N 65°48' E 012°32'510.1
2018-Feb-16 13:30N 65°43' E 012°27'2 4.4
2018-Feb-16 13:00N 65°45' E 012°31'4 7.1
2018-Feb-16 12:30N 65°48' E 012°30'1 1.4
2018-Feb-16 12:00N 65°49' E 012°28'4 7.4
2018-Feb-16 11:30N 65°46' E 012°33'4 7.3
2018-Feb-16 11:00N 65°43' E 012°28'2 4.0
2018-Feb-16 10:30N 65°45' E 012°30'4 7.3
2018-Feb-16 10:00N 65°48' E 012°31'2 4.5
2018-Feb-16 09:30N 65°49' E 012°26'3 6.3
2018-Feb-16 09:00N 65°47' E 012°30'4 8.0
2018-Feb-16 08:29N 65°43' E 012°28'4 7.6
2018-Feb-16 08:00N 65°46' E 012°33'3 6.2
2018-Feb-16 07:30N 65°48' E 012°30'2 3.2
2018-Feb-16 07:00N 65°49' E 012°26'4 8.3
2018-Feb-16 06:30N 65°46' E 012°33'3 6.7
2018-Feb-16 06:00N 65°43' E 012°27'2 4.6
2018-Feb-16 05:30N 65°45' E 012°31'3 6.8
2018-Feb-16 05:00N 65°48' E 012°30'2 3.9
2018-Feb-16 04:30N 65°49' E 012°26'0 0.0
2018-Feb-16 04:00N 65°49' E 012°26'0 0.0
2018-Feb-16 03:30N 65°49' E 012°26'0 0.0
2018-Feb-16 03:00N 65°49' E 012°26'0 0.0
2018-Feb-16 02:29N 65°49' E 012°26'0 0.0
2018-Feb-16 01:57N 65°49' E 012°26'0 0.0
2018-Feb-16 01:30N 65°49' E 012°26'0 0.0
2018-Feb-16 01:00N 65°49' E 012°26'0 0.0
2018-Feb-16 00:29N 65°49' E 012°26'0 0.0
2018-Feb-15 23:59N 65°49' E 012°26'0 0.0
2018-Feb-15 23:29N 65°49' E 012°26'0 0.0
2018-Feb-15 23:00N 65°49' E 012°26'0 0.0
2018-Feb-15 22:30N 65°49' E 012°26'0 0.0
2018-Feb-15 22:00N 65°49' E 012°26'0 0.0
2018-Feb-15 21:29N 65°49' E 012°26'4 7.5
2018-Feb-15 21:00N 65°46' E 012°30'3 4.8
2018-Feb-15 20:28N 65°44' E 012°28'4 9.4
2018-Feb-15 20:00N 65°48' E 012°31'3 5.6
2018-Feb-15 19:30N 65°49' E 012°26'0 0.7
2018-Feb-15 19:00N 65°49' E 012°26'5 9.3
2018-Feb-15 18:30N 65°44' E 012°29'1 1.1
2018-Feb-15 18:00N 65°45' E 012°30'3 6.4
2018-Feb-15 17:30N 65°48' E 012°31'2 5.0
2018-Feb-15 17:00N 65°49' E 012°26'1 1.5
2018-Feb-15 16:30N 65°49' E 012°27'4 7.3
2018-Feb-15 15:59N 65°45' E 012°32'3 6.7
2018-Feb-15 15:30N 65°43' E 012°28'4 8.8
2018-Feb-15 15:00N 65°47' E 012°31'3 6.1
2018-Feb-15 14:30N 65°49' E 012°26'2 4.0
2018-Feb-15 14:00N 65°48' E 012°30'510.4
2018-Feb-15 13:30N 65°43' E 012°27'0 0.5
2018-Feb-15 13:00N 65°43' E 012°28'510.0
2018-Feb-15 12:30N 65°48' E 012°30'2 3.7
2018-Feb-15 12:00N 65°49' E 012°26'4 8.3
2018-Feb-15 11:30N 65°46' E 012°32'4 7.8
2018-Feb-15 11:00N 65°43' E 012°27'2 4.0
2018-Feb-15 10:30N 65°45' E 012°30'3 6.9
2018-Feb-15 10:00N 65°48' E 012°31'2 4.9
2018-Feb-15 09:30N 65°49' E 012°26'3 6.7
2018-Feb-15 09:00N 65°46' E 012°30'4 7.0
2018-Feb-15 08:28N 65°43' E 012°28'4 7.2
2018-Feb-15 07:59N 65°46' E 012°33'3 6.4
2018-Feb-15 07:30N 65°48' E 012°30'2 3.7
2018-Feb-15 07:00N 65°49' E 012°26'3 5.2
2018-Feb-15 06:28N 65°48' E 012°31'4 9.2
2018-Feb-15 06:00N 65°44' E 012°28'2 3.4
2018-Feb-15 05:30N 65°45' E 012°31'3 6.6
2018-Feb-15 04:58N 65°48' E 012°30'2 3.9
2018-Feb-15 04:29N 65°49' E 012°26'0 0.0
2018-Feb-15 04:00N 65°49' E 012°26'0 0.0
2018-Feb-15 03:29N 65°49' E 012°26'0 0.0
2018-Feb-15 02:59N 65°49' E 012°26'0 0.0
2018-Feb-15 02:30N 65°49' E 012°26'0 0.0
2018-Feb-15 02:00N 65°49' E 012°26'0 0.0
2018-Feb-15 01:29N 65°49' E 012°26'0 0.0
2018-Feb-15 01:00N 65°49' E 012°26'0 0.0
2018-Feb-15 00:28N 65°49' E 012°26'0 0.0
2018-Feb-15 00:00N 65°49' E 012°26'0 0.0
2018-Feb-14 23:30N 65°49' E 012°26'0 0.0
2018-Feb-14 23:00N 65°49' E 012°26'0 0.0
2018-Feb-14 22:30N 65°49' E 012°26'0 0.2
2018-Feb-14 22:00N 65°49' E 012°26'0 0.2
2018-Feb-14 21:29N 65°49' E 012°26'4 7.4
2018-Feb-14 21:00N 65°46' E 012°30'3 7.1
2018-Feb-14 20:30N 65°43' E 012°28'4 8.2
2018-Feb-14 19:59N 65°47' E 012°30'3 6.3
2018-Feb-14 19:30N 65°49' E 012°26'2 4.9
2018-Feb-14 19:00N 65°48' E 012°31'5 9.8
2018-Feb-14 18:30N 65°43' E 012°27'3 5.2
2018-Feb-14 18:00N 65°45' E 012°31'3 5.6
2018-Feb-14 17:30N 65°48' E 012°31'2 4.9
2018-Feb-14 17:00N 65°49' E 012°26'0 0.6
2018-Feb-14 16:29N 65°49' E 012°26'4 8.7
2018-Feb-14 16:00N 65°46' E 012°33'4 7.4
2018-Feb-14 15:30N 65°43' E 012°28'4 8.6
2018-Feb-14 15:00N 65°47' E 012°31'3 5.9
2018-Feb-14 14:28N 65°49' E 012°26'3 6.0
2018-Feb-14 14:00N 65°47' E 012°31'5 9.2
2018-Feb-14 13:30N 65°43' E 012°28'3 5.5
2018-Feb-14 12:59N 65°45' E 012°31'3 6.4
2018-Feb-14 12:30N 65°48' E 012°30'2 4.0
2018-Feb-14 11:59N 65°49' E 012°26'3 5.3
2018-Feb-14 11:29N 65°48' E 012°31'5 9.9
2018-Feb-14 11:00N 65°43' E 012°27'1 2.5
2018-Feb-14 10:30N 65°44' E 012°28'4 8.5
2018-Feb-14 10:00N 65°48' E 012°30'2 3.5
2018-Feb-14 09:31N 65°49' E 012°26'3 6.4
2018-Feb-14 09:00N 65°46' E 012°30'4 7.5
2018-Feb-14 08:30N 65°43' E 012°28'4 7.5
2018-Feb-14 08:00N 65°46' E 012°33'3 6.2
2018-Feb-14 07:30N 65°48' E 012°30'2 3.4
2018-Feb-14 07:00N 65°49' E 012°26'4 7.0
2018-Feb-14 06:30N 65°46' E 012°32'4 7.4
2018-Feb-14 06:00N 65°43' E 012°27'4 7.1
2018-Feb-14 05:30N 65°46' E 012°33'3 6.2
2018-Feb-14 05:00N 65°48' E 012°30'2 3.7
2018-Feb-14 04:30N 65°49' E 012°26'0 0.0
2018-Feb-14 03:59N 65°49' E 012°26'0 0.0
2018-Feb-14 03:30N 65°49' E 012°26'0 0.0
2018-Feb-14 03:00N 65°49' E 012°26'0 0.0
2018-Feb-14 02:30N 65°49' E 012°26'0 0.0
2018-Feb-14 02:00N 65°49' E 012°26'0 0.0
2018-Feb-14 01:30N 65°49' E 012°26'0 0.0
2018-Feb-14 01:00N 65°49' E 012°26'0 0.0
2018-Feb-14 00:29N 65°49' E 012°26'0 0.0
2018-Feb-14 00:00N 65°49' E 012°26'0 0.0
2018-Feb-13 23:29N 65°49' E 012°26'0 0.0
2018-Feb-13 23:00N 65°49' E 012°26'0 0.0
2018-Feb-13 22:30N 65°49' E 012°26'0 0.0
2018-Feb-13 22:00N 65°49' E 012°26'0 0.0
2018-Feb-13 21:30N 65°49' E 012°26'3 6.5
2018-Feb-13 21:00N 65°47' E 012°30'4 7.8
2018-Feb-13 20:30N 65°43' E 012°28'4 8.2
2018-Feb-13 20:00N 65°47' E 012°30'3 6.4
2018-Feb-13 19:30N 65°49' E 012°26'4 7.9
2018-Feb-13 18:59N 65°46' E 012°32'3 7.0
2018-Feb-13 18:29N 65°43' E 012°27'3 6.4
2018-Feb-13 18:00N 65°46' E 012°32'3 5.2
2018-Feb-13 17:31N 65°48' E 012°31'2 4.9
2018-Feb-13 17:00N 65°49' E 012°26'1 1.7
2018-Feb-13 16:30N 65°49' E 012°27'4 7.8
2018-Feb-13 16:00N 65°46' E 012°33'4 7.1
2018-Feb-13 15:30N 65°43' E 012°28'5 9.9
2018-Feb-13 15:00N 65°48' E 012°31'3 5.5
2018-Feb-13 14:30N 65°49' E 012°26'3 5.5
2018-Feb-13 14:00N 65°48' E 012°32'  
Track history (hours):
 
Tides and Currents Weather Stations Pressure Air Temp Water Temp Dewpoint Dewpoint Depression Visibility Wind Speed Wind Dir Waves Ship Positions

Kjella

Last reported at 2018-Feb-23 14:00 UTC. Time now 2018-Feb-23 14:01 UTC.
Position N 65°48' E 012°31'.

Length 55 m; draft 3.5 m.

Type: Passenger vessel. MMSI: 257049700.

Date/timePositionNaut miles runAvg speedWind from/ knotsBaromVisibWave heightAir tempDewpointWater temp
2018-Feb-23 14:00N 65°48' E 012°31'510.0
2018-Feb-23 13:30N 65°43' E 012°28'3 6.3
2018-Feb-23 12:59N 65°45' E 012°32'3 6.1
2018-Feb-23 12:29N 65°48' E 012°30'2 3.2
2018-Feb-23 12:00N 65°49' E 012°26'5 9.0
2018-Feb-23 11:30N 65°46' E 012°33'4 7.5
2018-Feb-23 11:00N 65°43' E 012°28'2 3.5
2018-Feb-23 10:30N 65°44' E 012°29'4 7.1
2018-Feb-23 10:00N 65°48' E 012°32'3 5.4
2018-Feb-23 09:30N 65°49' E 012°26'3 6.8
2018-Feb-23 09:00N 65°47' E 012°30'4 7.8
2018-Feb-23 08:30N 65°43' E 012°28'4 7.6
2018-Feb-23 08:01N 65°46' E 012°33'3 6.0
2018-Feb-23 07:29N 65°48' E 012°30'2 3.5
2018-Feb-23 07:00N 65°49' E 012°26'3 6.4
2018-Feb-23 06:30N 65°47' E 012°31'3 7.1
2018-Feb-23 06:00N 65°43' E 012°28'2 3.4
2018-Feb-23 05:29N 65°45' E 012°31'3 6.8
2018-Feb-23 04:59N 65°48' E 012°30'2 4.3
2018-Feb-23 04:30N 65°49' E 012°26'0 0.0
2018-Feb-23 03:59N 65°49' E 012°26'0 0.0
2018-Feb-23 03:30N 65°49' E 012°26'0 0.0
2018-Feb-23 02:58N 65°49' E 012°26'0 0.0
2018-Feb-23 02:29N 65°49' E 012°26'0 0.0
2018-Feb-23 02:00N 65°49' E 012°26'0 0.0
2018-Feb-23 01:30N 65°49' E 012°26'0 0.0
2018-Feb-23 01:00N 65°49' E 012°26'0 0.0
2018-Feb-23 00:29N 65°49' E 012°26'0 0.0
2018-Feb-23 00:00N 65°49' E 012°26'0 0.0
2018-Feb-22 23:29N 65°49' E 012°26'0 0.0
2018-Feb-22 22:58N 65°49' E 012°26'0 0.0
2018-Feb-22 22:30N 65°49' E 012°26'0 0.0
2018-Feb-22 22:00N 65°49' E 012°26'0 0.0
2018-Feb-22 21:30N 65°49' E 012°26'3 5.9
2018-Feb-22 21:00N 65°47' E 012°30'4 7.7
2018-Feb-22 20:30N 65°43' E 012°27'5 9.7
2018-Feb-22 20:00N 65°48' E 012°31'3 5.5
2018-Feb-22 19:30N 65°49' E 012°26'2 3.2
2018-Feb-22 19:00N 65°49' E 012°29'510.4
2018-Feb-22 18:30N 65°43' E 012°27'3 6.4
2018-Feb-22 18:00N 65°46' E 012°33'3 5.6
2018-Feb-22 17:30N 65°48' E 012°31'2 4.4
2018-Feb-22 17:00N 65°49' E 012°26'0 0.7
2018-Feb-22 16:30N 65°49' E 012°26'4 9.0
2018-Feb-22 16:00N 65°46' E 012°33'4 7.6
2018-Feb-22 15:30N 65°43' E 012°28'4 8.7
2018-Feb-22 15:00N 65°47' E 012°31'3 5.8
2018-Feb-22 14:29N 65°49' E 012°26'3 5.8
2018-Feb-22 14:01N 65°48' E 012°31'5 9.4
2018-Feb-22 13:30N 65°43' E 012°27'3 6.0
2018-Feb-22 13:00N 65°45' E 012°32'3 6.3
2018-Feb-22 12:30N 65°48' E 012°30'0 0.8
2018-Feb-22 12:00N 65°49' E 012°29'4 7.2
2018-Feb-22 11:30N 65°46' E 012°33'4 7.0
2018-Feb-22 10:59N 65°43' E 012°28'3 6.3
2018-Feb-22 10:30N 65°45' E 012°32'3 6.0
2018-Feb-22 10:00N 65°48' E 012°30'2 4.3
2018-Feb-22 09:30N 65°49' E 012°26'3 6.7
2018-Feb-22 09:00N 65°46' E 012°30'4 7.5
2018-Feb-22 08:29N 65°43' E 012°28'4 6.8
2018-Feb-22 07:57N 65°46' E 012°33'2 5.4
2018-Feb-22 07:30N 65°48' E 012°31'1 2.6
2018-Feb-22 07:00N 65°49' E 012°28'4 7.3
2018-Feb-22 06:30N 65°46' E 012°33'3 6.8
2018-Feb-22 06:00N 65°43' E 012°27'3 5.1
2018-Feb-22 05:30N 65°45' E 012°31'3 6.9
2018-Feb-22 05:00N 65°49' E 012°30'2 3.2
2018-Feb-22 04:29N 65°49' E 012°26'0 0.0
2018-Feb-22 03:59N 65°49' E 012°26'0 0.0
2018-Feb-22 03:29N 65°49' E 012°26'0 0.0
2018-Feb-22 02:59N 65°49' E 012°26'0 0.0
2018-Feb-22 02:28N 65°49' E 012°26'0 0.0
2018-Feb-22 01:59N 65°49' E 012°26'0 0.0
2018-Feb-22 01:30N 65°49' E 012°26'0 0.0
2018-Feb-22 00:59N 65°49' E 012°26'0 0.0
2018-Feb-22 00:30N 65°49' E 012°26'0 0.0
2018-Feb-22 00:00N 65°49' E 012°26'0 0.0
2018-Feb-21 23:30N 65°49' E 012°26'0 0.0
2018-Feb-21 23:00N 65°49' E 012°26'0 0.0
2018-Feb-21 22:30N 65°49' E 012°26'0 0.0
2018-Feb-21 22:00N 65°49' E 012°26'0 0.0
2018-Feb-21 21:30N 65°49' E 012°26'3 6.0
2018-Feb-21 21:00N 65°47' E 012°31'4 8.5
2018-Feb-21 20:29N 65°43' E 012°28'611.4
2018-Feb-21 19:59N 65°48' E 012°30'2 4.2
2018-Feb-21 19:28N 65°49' E 012°26'3 5.4
2018-Feb-21 19:00N 65°48' E 012°31'510.1
2018-Feb-21 18:30N 65°43' E 012°27'3 6.0
2018-Feb-21 18:00N 65°45' E 012°32'3 5.8
2018-Feb-21 17:30N 65°48' E 012°31'2 4.4
2018-Feb-21 17:00N 65°49' E 012°26'1 1.7
2018-Feb-21 16:30N 65°49' E 012°27'4 7.5
2018-Feb-21 16:00N 65°46' E 012°33'4 6.9
2018-Feb-21 15:29N 65°43' E 012°28'4 9.1
2018-Feb-21 15:00N 65°47' E 012°31'3 6.1
2018-Feb-21 14:30N 65°49' E 012°26'2 4.0
2018-Feb-21 14:00N 65°48' E 012°30'510.2
2018-Feb-21 13:30N 65°43' E 012°27'0 0.3
2018-Feb-21 13:00N 65°43' E 012°27'510.3
2018-Feb-21 12:31N 65°48' E 012°30'2 3.2
2018-Feb-21 12:00N 65°49' E 012°26'5 9.0
2018-Feb-21 11:30N 65°46' E 012°33'4 7.1
2018-Feb-21 10:58N 65°43' E 012°28'4 8.0
2018-Feb-21 10:30N 65°46' E 012°33'3 5.2
2018-Feb-21 10:00N 65°48' E 012°31'2 4.6
2018-Feb-21 09:30N 65°49' E 012°26'3 6.7
2018-Feb-21 09:00N 65°46' E 012°30'4 7.5
2018-Feb-21 08:29N 65°43' E 012°28'3 5.9
2018-Feb-21 07:59N 65°45' E 012°31'3 6.6
2018-Feb-21 07:30N 65°48' E 012°30'2 3.5
2018-Feb-21 07:00N 65°49' E 012°26'3 6.3
2018-Feb-21 06:30N 65°47' E 012°31'3 7.0
2018-Feb-21 06:00N 65°43' E 012°29'1 2.6
2018-Feb-21 05:30N 65°45' E 012°30'3 6.8
2018-Feb-21 05:00N 65°48' E 012°31'2 4.6
2018-Feb-21 04:29N 65°49' E 012°26'0 0.0
2018-Feb-21 04:00N 65°49' E 012°26'0 0.0
2018-Feb-21 03:30N 65°49' E 012°26'0 0.0
2018-Feb-21 03:00N 65°49' E 012°26'0 0.0
2018-Feb-21 02:29N 65°49' E 012°26'0 0.0
2018-Feb-21 01:59N 65°49' E 012°26'0 0.0
2018-Feb-21 01:29N 65°49' E 012°26'0 0.0
2018-Feb-21 01:00N 65°49' E 012°26'0 0.0
2018-Feb-21 00:30N 65°49' E 012°26'0 0.0
2018-Feb-21 00:00N 65°49' E 012°26'0 0.0
2018-Feb-20 23:29N 65°49' E 012°26'0 0.0
2018-Feb-20 23:00N 65°49' E 012°26'0 0.0
2018-Feb-20 22:30N 65°49' E 012°26'0 0.0
2018-Feb-20 22:00N 65°49' E 012°26'0 0.0
2018-Feb-20 21:29N 65°49' E 012°26'3 5.3
2018-Feb-20 21:00N 65°48' E 012°31'5 9.9
2018-Feb-20 20:30N 65°43' E 012°28'4 8.8
2018-Feb-20 20:00N 65°47' E 012°30'3 5.9
2018-Feb-20 19:30N 65°49' E 012°26'2 4.8
2018-Feb-20 18:59N 65°48' E 012°31'5 9.7
2018-Feb-20 18:30N 65°43' E 012°27'3 6.1
2018-Feb-20 17:59N 65°46' E 012°32'3 5.6
2018-Feb-20 17:28N 65°48' E 012°30'2 4.4
2018-Feb-20 16:59N 65°49' E 012°26'2 3.9
2018-Feb-20 16:29N 65°48' E 012°30'3 6.1
2018-Feb-20 16:00N 65°46' E 012°33'4 7.4
2018-Feb-20 15:29N 65°43' E 012°28'5 9.6
2018-Feb-20 14:59N 65°48' E 012°31'3 5.7
2018-Feb-20 14:30N 65°49' E 012°26'2 4.5
2018-Feb-20 13:59N 65°48' E 012°31'510.1
2018-Feb-20 13:30N 65°43' E 012°27'3 5.0
2018-Feb-20 12:59N 65°45' E 012°31'3 6.7
2018-Feb-20 12:30N 65°48' E 012°30'2 3.3
2018-Feb-20 12:00N 65°49' E 012°26'5 8.9
2018-Feb-20 11:30N 65°46' E 012°33'4 7.5
2018-Feb-20 11:00N 65°43' E 012°28'2 4.4
2018-Feb-20 10:28N 65°45' E 012°30'3 7.0
2018-Feb-20 10:00N 65°48' E 012°31'2 4.7
2018-Feb-20 09:30N 65°49' E 012°26'3 6.5
2018-Feb-20 09:00N 65°46' E 012°30'4 7.6
2018-Feb-20 08:30N 65°43' E 012°28'3 5.8
2018-Feb-20 08:00N 65°45' E 012°31'3 6.5
2018-Feb-20 07:30N 65°48' E 012°30'2 3.7
2018-Feb-20 07:00N 65°49' E 012°26'4 7.3
2018-Feb-20 06:30N 65°46' E 012°31'4 6.8
2018-Feb-20 05:59N 65°43' E 012°27'2 4.3
2018-Feb-20 05:29N 65°45' E 012°31'4 7.2
2018-Feb-20 05:00N 65°48' E 012°30'2 3.8
2018-Feb-20 04:30N 65°49' E 012°26'0 0.0
2018-Feb-20 04:00N 65°49' E 012°26'0 0.0
2018-Feb-20 03:29N 65°49' E 012°26'0 0.0
2018-Feb-20 03:00N 65°49' E 012°26'0 0.0
2018-Feb-20 02:30N 65°49' E 012°26'0 0.0
2018-Feb-20 02:00N 65°49' E 012°26'0 0.0
2018-Feb-20 01:30N 65°49' E 012°26'0 0.0
2018-Feb-20 00:59N 65°49' E 012°26'0 0.0
2018-Feb-20 00:30N 65°49' E 012°26'0 0.0
2018-Feb-19 23:59N 65°49' E 012°26'0 0.0
2018-Feb-19 23:30N 65°49' E 012°26'0 0.0
2018-Feb-19 22:59N 65°49' E 012°26'0 0.0
2018-Feb-19 22:30N 65°49' E 012°26'0 0.0
2018-Feb-19 22:00N 65°49' E 012°26'0 0.0
2018-Feb-19 21:30N 65°49' E 012°26'3 5.6
2018-Feb-19 21:00N 65°47' E 012°31'5 9.3
2018-Feb-19 20:30N 65°43' E 012°28'4 8.5
2018-Feb-19 20:00N 65°47' E 012°30'3 6.1
2018-Feb-19 19:30N 65°49' E 012°26'3 5.2
2018-Feb-19 19:00N 65°48' E 012°31'3 6.7
2018-Feb-19 18:30N 65°44' E 012°29'1 2.5
2018-Feb-19 18:00N 65°43' E 012°27'5 9.8
2018-Feb-19 17:30N 65°48' E 012°30'2 4.3
2018-Feb-19 17:00N 65°49' E 012°26'2 4.7
2018-Feb-19 16:30N 65°48' E 012°31'3 5.8
2018-Feb-19 15:59N 65°45' E 012°31'2 5.0
2018-Feb-19 15:30N 65°43' E 012°27'5 9.8
2018-Feb-19 15:00N 65°48' E 012°32'3 5.5
2018-Feb-19 14:30N 65°49' E 012°26'2 3.6
2018-Feb-19 14:00N 65°48' E 012°30'510.4
2018-Feb-19 13:30N 65°43' E 012°27'0 0.6
2018-Feb-19 12:59N 65°44' E 012°28'510.4
2018-Feb-19 12:30N 65°48' E 012°30'2 3.6
2018-Feb-19 12:00N 65°49' E 012°26'3 6.1
2018-Feb-19 11:29N 65°47' E 012°30'4 8.1
2018-Feb-19 11:00N 65°43' E 012°28'4 7.2
2018-Feb-19 10:30N 65°46' E 012°33'3 5.4
2018-Feb-19 10:00N 65°48' E 012°31'2 4.7
2018-Feb-19 09:30N 65°49' E 012°26'3 6.7
2018-Feb-19 09:00N 65°46' E 012°30'4 7.4
2018-Feb-19 08:30N 65°43' E 012°28'3 6.7
2018-Feb-19 07:59N 65°46' E 012°33'3 6.4
2018-Feb-19 07:30N 65°48' E 012°30'1 1.7
2018-Feb-19 06:59N 65°49' E 012°28'4 7.3
2018-Feb-19 06:30N 65°46' E 012°33'3 7.0
2018-Feb-19 06:00N 65°43' E 012°27'1 2.9
2018-Feb-19 05:30N 65°44' E 012°30'4 7.0
2018-Feb-19 05:00N 65°48' E 012°31'2 4.6
2018-Feb-19 04:29N 65°49' E 012°26'0 0.0
2018-Feb-19 04:00N 65°49' E 012°26'0 0.0
2018-Feb-19 03:30N 65°49' E 012°26'0 0.0
2018-Feb-19 03:00N 65°49' E 012°26'0 0.0
2018-Feb-19 02:29N 65°49' E 012°26'0 0.0
2018-Feb-19 02:00N 65°49' E 012°26'0 0.0
2018-Feb-19 01:30N 65°49' E 012°26'0 0.0
2018-Feb-19 01:00N 65°49' E 012°26'0 0.0
2018-Feb-19 00:30N 65°49' E 012°26'0 0.0
2018-Feb-18 23:58N 65°49' E 012°26'0 0.0
2018-Feb-18 23:30N 65°49' E 012°26'0 0.0
2018-Feb-18 22:59N 65°49' E 012°26'0 0.0
2018-Feb-18 22:30N 65°49' E 012°26'0 0.0
2018-Feb-18 22:00N 65°49' E 012°26'0 0.0
2018-Feb-18 21:30N 65°49' E 012°26'4 7.3
2018-Feb-18 21:00N 65°46' E 012°30'3 6.7
2018-Feb-18 20:30N 65°43' E 012°28'510.5
2018-Feb-18 20:00N 65°48' E 012°31'3 5.6
2018-Feb-18 19:30N 65°49' E 012°26'2 4.7
2018-Feb-18 19:00N 65°48' E 012°31'5 9.8
2018-Feb-18 18:30N 65°43' E 012°27'3 5.4
2018-Feb-18 18:00N 65°45' E 012°32'3 5.5
2018-Feb-18 17:30N 65°48' E 012°31'2 4.6
2018-Feb-18 16:59N 65°49' E 012°26'1 1.8
2018-Feb-18 16:30N 65°49' E 012°27'4 8.0
2018-Feb-18 16:00N 65°46' E 012°33'4 7.2
2018-Feb-18 15:30N 65°43' E 012°28'3 6.3
2018-Feb-18 15:00N 65°46' E 012°29'4 7.6
2018-Feb-18 14:30N 65°49' E 012°26'0 0.0
2018-Feb-18 13:57N 65°49' E 012°26'0 0.0
2018-Feb-18 13:30N 65°49' E 012°26'0 0.0
2018-Feb-18 13:00N 65°49' E 012°26'0 0.0
2018-Feb-18 12:30N 65°49' E 012°26'0 0.0
2018-Feb-18 12:00N 65°49' E 012°26'2 4.0
2018-Feb-18 11:30N 65°48' E 012°30'611.2
2018-Feb-18 11:00N 65°43' E 012°28'1 2.2
2018-Feb-18 10:30N 65°44' E 012°28'3 6.6
2018-Feb-18 10:00N 65°47' E 012°31'3 6.3
2018-Feb-18 09:30N 65°49' E 012°26'3 6.4
2018-Feb-18 09:00N 65°47' E 012°30'4 7.9
2018-Feb-18 08:30N 65°43' E 012°28'1 1.9
2018-Feb-18 08:00N 65°44' E 012°28'5 9.4
2018-Feb-18 07:29N 65°48' E 012°30'2 3.7
2018-Feb-18 06:59N 65°49' E 012°26'0 0.0
2018-Feb-18 06:29N 65°49' E 012°26'0 0.0
2018-Feb-18 06:00N 65°49' E 012°26'0 0.0
2018-Feb-18 05:29N 65°49' E 012°26'0 0.0
2018-Feb-18 05:00N 65°49' E 012°26'0 0.0
2018-Feb-18 04:30N 65°49' E 012°26'0 0.0
2018-Feb-18 04:00N 65°49' E 012°26'0 0.0
2018-Feb-18 03:30N 65°49' E 012°26'0 0.0
2018-Feb-18 02:58N 65°49' E 012°26'0 0.0
2018-Feb-18 02:30N 65°49' E 012°26'0 0.0
2018-Feb-18 02:00N 65°49' E 012°26'0 0.0
2018-Feb-18 01:30N 65°49' E 012°26'0 0.0
2018-Feb-18 00:58N 65°49' E 012°26'0 0.0
2018-Feb-18 00:30N 65°49' E 012°26'0 0.0
2018-Feb-18 00:00N 65°49' E 012°26'0 0.0
2018-Feb-17 23:29N 65°49' E 012°26'0 0.0
2018-Feb-17 23:00N 65°49' E 012°26'0 0.0
2018-Feb-17 22:30N 65°49' E 012°26'0 0.0
2018-Feb-17 21:58N 65°49' E 012°26'0 0.0
2018-Feb-17 21:29N 65°49' E 012°26'0 0.0
2018-Feb-17 20:59N 65°49' E 012°26'0 0.0
2018-Feb-17 20:29N 65°49' E 012°26'0 0.0
2018-Feb-17 20:00N 65°49' E 012°26'0 0.0
2018-Feb-17 19:30N 65°49' E 012°26'0 0.5
2018-Feb-17 19:00N 65°49' E 012°26'5 9.0
2018-Feb-17 18:30N 65°45' E 012°29'1 2.0
2018-Feb-17 18:00N 65°44' E 012°28'3 6.5
2018-Feb-17 17:30N 65°47' E 012°31'3 6.4
2018-Feb-17 16:59N 65°49' E 012°26'2 4.4
2018-Feb-17 16:29N 65°48' E 012°31'3 6.2
2018-Feb-17 16:00N 65°45' E 012°32'3 5.5
2018-Feb-17 15:30N 65°43' E 012°27'5 9.6
2018-Feb-17 15:00N 65°48' E 012°31'3 5.6
2018-Feb-17 14:30N 65°49' E 012°26'0 0.0
2018-Feb-17 13:59N 65°49' E 012°26'0 0.0
2018-Feb-17 13:30N 65°49' E 012°26'0 0.0
2018-Feb-17 13:00N 65°49' E 012°26'0 0.0
2018-Feb-17 12:30N 65°49' E 012°26'0 0.6
2018-Feb-17 12:00N 65°49' E 012°26'5 9.4
2018-Feb-17 11:30N 65°46' E 012°33'4 7.4
2018-Feb-17 11:00N 65°43' E 012°28'3 6.9
2018-Feb-17 10:30N 65°46' E 012°33'3 5.4
2018-Feb-17 10:00N 65°48' E 012°31'2 3.5
2018-Feb-17 09:29N 65°49' E 012°26'3 5.4
2018-Feb-17 08:59N 65°47' E 012°30'4 8.0
2018-Feb-17 08:30N 65°43' E 012°28'2 4.8
2018-Feb-17 08:00N 65°45' E 012°29'3 6.8
2018-Feb-17 07:30N 65°48' E 012°30'2 3.6
2018-Feb-17 07:00N 65°49' E 012°26'4 8.6
2018-Feb-17 06:29N 65°46' E 012°33'3 6.5
2018-Feb-17 06:00N 65°43' E 012°28'1 1.4
2018-Feb-17 05:30N 65°43' E 012°28'0 0.0
2018-Feb-17 05:00N 65°43' E 012°28'0 0.0
2018-Feb-17 04:30N 65°43' E 012°28'0 0.0
2018-Feb-17 04:00N 65°43' E 012°28'0 0.0
2018-Feb-17 03:30N 65°43' E 012°28'0 0.0
2018-Feb-17 03:00N 65°43' E 012°28'0 0.0
2018-Feb-17 02:30N 65°43' E 012°28'0 0.0
2018-Feb-17 02:00N 65°43' E 012°28'0 0.0
2018-Feb-17 01:30N 65°43' E 012°28'0 0.0
2018-Feb-17 01:00N 65°43' E 012°28'0 0.0
2018-Feb-17 00:30N 65°43' E 012°28'0 0.0
2018-Feb-17 00:00N 65°43' E 012°28'0 0.0
2018-Feb-16 23:29N 65°43' E 012°28'0 0.0
2018-Feb-16 23:00N 65°43' E 012°28'0 0.0
2018-Feb-16 22:30N 65°43' E 012°28'0 0.0
2018-Feb-16 22:00N 65°43' E 012°28'0 0.0
2018-Feb-16 21:30N 65°43' E 012°28'0 0.0
2018-Feb-16 21:00N 65°43' E 012°28'0 0.2
2018-Feb-16 20:30N 65°43' E 012°28'4 8.6
2018-Feb-16 20:00N 65°47' E 012°30'2 4.4
2018-Feb-16 19:30N 65°49' E 012°27'4 7.4
2018-Feb-16 19:00N 65°46' E 012°32'3 6.4
2018-Feb-16 18:30N 65°43' E 012°27'4 7.1
2018-Feb-16 18:00N 65°46' E 012°33'3 6.6
2018-Feb-16 17:30N 65°49' E 012°29'2 3.1
2018-Feb-16 17:00N 65°49' E 012°26'3 6.1
2018-Feb-16 16:29N 65°47' E 012°31'3 6.8
2018-Feb-16 16:00N 65°44' E 012°28'1 1.8
2018-Feb-16 15:30N 65°43' E 012°28'4 8.5
2018-Feb-16 15:00N 65°47' E 012°31'3 6.0
2018-Feb-16 14:30N 65°49' E 012°26'3 5.3
2018-Feb-16 13:59N 65°48' E 012°32'510.1
2018-Feb-16 13:30N 65°43' E 012°27'2 4.4
2018-Feb-16 13:00N 65°45' E 012°31'4 7.1
2018-Feb-16 12:30N 65°48' E 012°30'1 1.4
2018-Feb-16 12:00N 65°49' E 012°28'4 7.4
2018-Feb-16 11:30N 65°46' E 012°33'4 7.3
2018-Feb-16 11:00N 65°43' E 012°28'2 4.0
2018-Feb-16 10:30N 65°45' E 012°30'4 7.3
2018-Feb-16 10:00N 65°48' E 012°31'2 4.5
2018-Feb-16 09:30N 65°49' E 012°26'3 6.3
2018-Feb-16 09:00N 65°47' E 012°30'4 8.0
2018-Feb-16 08:29N 65°43' E 012°28'4 7.6
2018-Feb-16 08:00N 65°46' E 012°33'3 6.2
2018-Feb-16 07:30N 65°48' E 012°30'2 3.2
2018-Feb-16 07:00N 65°49' E 012°26'4 8.3
2018-Feb-16 06:30N 65°46' E 012°33'3 6.7
2018-Feb-16 06:00N 65°43' E 012°27'2 4.6
2018-Feb-16 05:30N 65°45' E 012°31'3 6.8
2018-Feb-16 05:00N 65°48' E 012°30'2 3.9
2018-Feb-16 04:30N 65°49' E 012°26'0 0.0
2018-Feb-16 04:00N 65°49' E 012°26'0 0.0
2018-Feb-16 03:30N 65°49' E 012°26'0 0.0
2018-Feb-16 03:00N 65°49' E 012°26'0 0.0
2018-Feb-16 02:29N 65°49' E 012°26'0 0.0
2018-Feb-16 01:57N 65°49' E 012°26'0 0.0
2018-Feb-16 01:30N 65°49' E 012°26'0 0.0
2018-Feb-16 01:00N 65°49' E 012°26'0 0.0
2018-Feb-16 00:29N 65°49' E 012°26'0 0.0
2018-Feb-15 23:59N 65°49' E 012°26'0 0.0
2018-Feb-15 23:29N 65°49' E 012°26'0 0.0
2018-Feb-15 23:00N 65°49' E 012°26'0 0.0
2018-Feb-15 22:30N 65°49' E 012°26'0 0.0
2018-Feb-15 22:00N 65°49' E 012°26'0 0.0
2018-Feb-15 21:29N 65°49' E 012°26'4 7.5
2018-Feb-15 21:00N 65°46' E 012°30'3 4.8
2018-Feb-15 20:28N 65°44' E 012°28'4 9.4
2018-Feb-15 20:00N 65°48' E 012°31'3 5.6
2018-Feb-15 19:30N 65°49' E 012°26'0 0.7
2018-Feb-15 19:00N 65°49' E 012°26'5 9.3
2018-Feb-15 18:30N 65°44' E 012°29'1 1.1
2018-Feb-15 18:00N 65°45' E 012°30'3 6.4
2018-Feb-15 17:30N 65°48' E 012°31'2 5.0
2018-Feb-15 17:00N 65°49' E 012°26'1 1.5
2018-Feb-15 16:30N 65°49' E 012°27'4 7.3
2018-Feb-15 15:59N 65°45' E 012°32'3 6.7
2018-Feb-15 15:30N 65°43' E 012°28'4 8.8
2018-Feb-15 15:00N 65°47' E 012°31'3 6.1
2018-Feb-15 14:30N 65°49' E 012°26'2 4.0
2018-Feb-15 14:00N 65°48' E 012°30'510.4
2018-Feb-15 13:30N 65°43' E 012°27'0 0.5
2018-Feb-15 13:00N 65°43' E 012°28'510.0
2018-Feb-15 12:30N 65°48' E 012°30'2 3.7
2018-Feb-15 12:00N 65°49' E 012°26'4 8.3
2018-Feb-15 11:30N 65°46' E 012°32'4 7.8
2018-Feb-15 11:00N 65°43' E 012°27'2 4.0
2018-Feb-15 10:30N 65°45' E 012°30'3 6.9
2018-Feb-15 10:00N 65°48' E 012°31'2 4.9
2018-Feb-15 09:30N 65°49' E 012°26'3 6.7
2018-Feb-15 09:00N 65°46' E 012°30'4 7.0
2018-Feb-15 08:28N 65°43' E 012°28'4 7.2
2018-Feb-15 07:59N 65°46' E 012°33'3 6.4
2018-Feb-15 07:30N 65°48' E 012°30'2 3.7
2018-Feb-15 07:00N 65°49' E 012°26'3 5.2
2018-Feb-15 06:28N 65°48' E 012°31'4 9.2
2018-Feb-15 06:00N 65°44' E 012°28'2 3.4
2018-Feb-15 05:30N 65°45' E 012°31'3 6.6
2018-Feb-15 04:58N 65°48' E 012°30'2 3.9
2018-Feb-15 04:29N 65°49' E 012°26'0 0.0
2018-Feb-15 04:00N 65°49' E 012°26'0 0.0
2018-Feb-15 03:29N 65°49' E 012°26'0 0.0
2018-Feb-15 02:59N 65°49' E 012°26'0 0.0
2018-Feb-15 02:30N 65°49' E 012°26'0 0.0
2018-Feb-15 02:00N 65°49' E 012°26'0 0.0
2018-Feb-15 01:29N 65°49' E 012°26'0 0.0
2018-Feb-15 01:00N 65°49' E 012°26'0 0.0
2018-Feb-15 00:28N 65°49' E 012°26'0 0.0
2018-Feb-15 00:00N 65°49' E 012°26'0 0.0
2018-Feb-14 23:30N 65°49' E 012°26'0 0.0
2018-Feb-14 23:00N 65°49' E 012°26'0 0.0
2018-Feb-14 22:30N 65°49' E 012°26'0 0.2
2018-Feb-14 22:00N 65°49' E 012°26'0 0.2
2018-Feb-14 21:29N 65°49' E 012°26'4 7.4
2018-Feb-14 21:00N 65°46' E 012°30'3 7.1
2018-Feb-14 20:30N 65°43' E 012°28'4 8.2
2018-Feb-14 19:59N 65°47' E 012°30'3 6.3
2018-Feb-14 19:30N 65°49' E 012°26'2 4.9
2018-Feb-14 19:00N 65°48' E 012°31'5 9.8
2018-Feb-14 18:30N 65°43' E 012°27'3 5.2
2018-Feb-14 18:00N 65°45' E 012°31'3 5.6
2018-Feb-14 17:30N 65°48' E 012°31'2 4.9
2018-Feb-14 17:00N 65°49' E 012°26'0 0.6
2018-Feb-14 16:29N 65°49' E 012°26'4 8.7
2018-Feb-14 16:00N 65°46' E 012°33'4 7.4
2018-Feb-14 15:30N 65°43' E 012°28'4 8.6
2018-Feb-14 15:00N 65°47' E 012°31'3 5.9
2018-Feb-14 14:28N 65°49' E 012°26'3 6.0
2018-Feb-14 14:00N 65°47' E 012°31'5 9.2
2018-Feb-14 13:30N 65°43' E 012°28'3 5.5
2018-Feb-14 12:59N 65°45' E 012°31'3 6.4
2018-Feb-14 12:30N 65°48' E 012°30'2 4.0
2018-Feb-14 11:59N 65°49' E 012°26'3 5.3
2018-Feb-14 11:29N 65°48' E 012°31'5 9.9
2018-Feb-14 11:00N 65°43' E 012°27'1 2.5
2018-Feb-14 10:30N 65°44' E 012°28'4 8.5
2018-Feb-14 10:00N 65°48' E 012°30'2 3.5
2018-Feb-14 09:31N 65°49' E 012°26'3 6.4
2018-Feb-14 09:00N 65°46' E 012°30'4 7.5
2018-Feb-14 08:30N 65°43' E 012°28'4 7.5
2018-Feb-14 08:00N 65°46' E 012°33'3 6.2
2018-Feb-14 07:30N 65°48' E 012°30'2 3.4
2018-Feb-14 07:00N 65°49' E 012°26'4 7.0
2018-Feb-14 06:30N 65°46' E 012°32'4 7.4
2018-Feb-14 06:00N 65°43' E 012°27'4 7.1
2018-Feb-14 05:30N 65°46' E 012°33'3 6.2
2018-Feb-14 05:00N 65°48' E 012°30'2 3.7
2018-Feb-14 04:30N 65°49' E 012°26'0 0.0
2018-Feb-14 03:59N 65°49' E 012°26'0 0.0
2018-Feb-14 03:30N 65°49' E 012°26'0 0.0
2018-Feb-14 03:00N 65°49' E 012°26'0 0.0
2018-Feb-14 02:30N 65°49' E 012°26'0 0.0
2018-Feb-14 02:00N 65°49' E 012°26'0 0.0
2018-Feb-14 01:30N 65°49' E 012°26'0 0.0
2018-Feb-14 01:00N 65°49' E 012°26'0 0.0
2018-Feb-14 00:29N 65°49' E 012°26'0 0.0
2018-Feb-14 00:00N 65°49' E 012°26'0 0.0
2018-Feb-13 23:29N 65°49' E 012°26'0 0.0
2018-Feb-13 23:00N 65°49' E 012°26'0 0.0
2018-Feb-13 22:30N 65°49' E 012°26'0 0.0
2018-Feb-13 22:00N 65°49' E 012°26'0 0.0
2018-Feb-13 21:30N 65°49' E 012°26'3 6.5
2018-Feb-13 21:00N 65°47' E 012°30'4 7.8
2018-Feb-13 20:30N 65°43' E 012°28'4 8.2
2018-Feb-13 20:00N 65°47' E 012°30'3 6.4
2018-Feb-13 19:30N 65°49' E 012°26'4 7.9
2018-Feb-13 18:59N 65°46' E 012°32'3 7.0
2018-Feb-13 18:29N 65°43' E 012°27'3 6.4
2018-Feb-13 18:00N 65°46' E 012°32'3 5.2
2018-Feb-13 17:31N 65°48' E 012°31'2 4.9
2018-Feb-13 17:00N 65°49' E 012°26'1 1.7
2018-Feb-13 16:30N 65°49' E 012°27'4 7.8
2018-Feb-13 16:00N 65°46' E 012°33'4 7.1
2018-Feb-13 15:30N 65°43' E 012°28'5 9.9
2018-Feb-13 15:00N 65°48' E 012°31'3 5.5
2018-Feb-13 14:30N 65°49' E 012°26'3 5.5
2018-Feb-13 14:00N 65°48' E 012°32'  

Dump ship's entire track history